Terminal Aerodrome Forecast
Issued by NWS Omaha/Valley, NE

Current Version | Previous Version | Text Only | Print | Product List | Glossary On
Versions: 1 2 3 4 5 6 7 8 9 10 11 12 13 14 15 16 17 18 19 20 21 22 23 24 25 26 27 28 29 30 31 32 33 34 35 36 37 38 39 40 41 42 43 44 45 46
000
FTUS43 KOAX 281740
TAFOMA
TAF
KOMA 281740Z 2818/2918 09005KT P6SM OVC018
     FM290300 06008KT P6SM VCSH OVC025
     FM290600 06006KT P6SM -RA OVC015
     FM291000 05010KT 3SM -RA BR OVC008
     FM291200 07009KT 2SM RA BR OVC005=

USA.gov is the U.S. government's official web portal to all federal, state and local government web resources and services.